Weather at Kalemie Airport

Public forecast

Using degrees Celsius for public forecast. Weather courtesy of forecast.io.

Closest aviation weather report (METAR) to Kalemie Airport

Closest report is Kigoma Airport, 64.5 nm (119.5 km) NNE. Retrieved 2021/11/29 07:00 UTC (54 minutes ago):

HTKA 290700Z 15010KT 9999 TSRA SCT019 FEW020CB BKN080 21/21 Q1017 NOSIG

Closest aviation forecast (TAF) to Kalemie Airport

Forecast is more than 12 hours old.

Closest forecast is Kigoma Airport, 64.5 nm (119.5 km) NNE. Retrieved 2021/11/19 12:03 UTC (10 days ago):

TAF HTKA 191100Z 1912/2012 21010KT 9999 FEW025 FEW026CB TEMPO 2010/2012 TSRA FEW025CB